createdAt,value
2023-05-15T00:01:14.738Z,13.82
2023-05-15T00:03:47.035Z,13.76
2023-05-15T00:06:20.174Z,14.91
2023-05-15T00:08:52.524Z,15.96
2023-05-15T00:11:28.132Z,15.89
2023-05-15T00:14:00.360Z,15.38
2023-05-15T00:16:33.296Z,16.31
2023-05-15T00:19:05.805Z,16.43
2023-05-15T00:21:40.600Z,16.66
2023-05-15T00:24:12.936Z,16.41
2023-05-15T00:26:47.834Z,16.56
2023-05-15T00:29:20.149Z,16.31
2023-05-15T00:31:52.475Z,15.78
2023-05-15T00:34:25.588Z,16.78
2023-05-15T00:36:57.915Z,16.66
2023-05-15T00:39:30.244Z,16.76
2023-05-15T00:42:06.570Z,17.03
2023-05-15T00:44:40.131Z,16.60
2023-05-15T00:47:15.164Z,17.32
2023-05-15T00:49:48.320Z,17.94
2023-05-15T00:52:21.478Z,18.16
2023-05-15T00:54:54.021Z,18.36
2023-05-15T00:57:32.581Z,18.61
2023-05-15T01:00:10.610Z,18.45
2023-05-15T01:02:43.598Z,17.76
2023-05-15T01:05:19.318Z,19.22
2023-05-15T01:08:00.505Z,18.79
2023-05-15T01:10:34.165Z,18.30
2023-05-15T01:13:11.213Z,18.30
2023-05-15T01:15:43.466Z,18.05
2023-05-15T01:18:15.933Z,19.26
2023-05-15T01:21:05.658Z,19.64
2023-05-15T01:23:51.677Z,18.99
2023-05-15T01:26:59.411Z,19.73
2023-05-15T01:29:41.602Z,19.34
2023-05-15T01:32:20.199Z,19.36
2023-05-15T01:35:09.807Z,19.69
2023-05-15T01:37:50.177Z,19.21
2023-05-15T01:40:27.446Z,18.79
2023-05-15T01:43:05.323Z,19.69
2023-05-15T01:45:43.537Z,19.81
2023-05-15T01:48:19.079Z,20.45
2023-05-15T01:50:55.546Z,19.92
2023-05-15T01:53:28.130Z,19.28
2023-05-15T01:56:02.299Z,20.34
2023-05-15T01:58:37.348Z,20.13
2023-05-15T02:01:14.289Z,19.94
2023-05-15T02:03:47.878Z,19.90
2023-05-15T02:06:21.183Z,19.68
2023-05-15T02:08:55.411Z,20.41
2023-05-15T02:11:27.652Z,20.47
2023-05-15T02:14:02.924Z,21.01
2023-05-15T02:16:37.999Z,21.73
2023-05-15T02:19:10.523Z,22.94
2023-05-15T02:21:42.907Z,22.71
2023-05-15T02:24:15.133Z,22.96
2023-05-15T02:26:57.927Z,22.94
2023-05-15T02:29:40.922Z,23.03
2023-05-15T02:32:24.483Z,22.84
2023-05-15T02:35:07.699Z,23.15
2023-05-15T02:37:43.604Z,23.34
2023-05-15T02:40:19.181Z,23.06
2023-05-15T02:42:53.329Z,23.51
2023-05-15T02:45:28.101Z,24.29
2023-05-15T02:48:05.259Z,24.62
2023-05-15T02:50:37.884Z,24.06
2023-05-15T02:53:11.216Z,24.36
2023-05-15T02:55:43.648Z,25.04
2023-05-15T02:58:16.470Z,25.65
2023-05-15T03:00:48.871Z,25.88
2023-05-15T03:03:23.700Z,26.11
2023-05-15T03:05:55.884Z,26.26
2023-05-15T03:08:28.381Z,26.19
2023-05-15T03:11:00.725Z,26.41
2023-05-15T03:13:32.984Z,26.93
2023-05-15T03:16:05.335Z,26.86
2023-05-15T03:18:40.345Z,26.49
2023-05-15T03:21:12.554Z,27.58
2023-05-15T03:23:44.727Z,27.16
2023-05-15T03:26:16.976Z,26.79
2023-05-15T03:28:52.064Z,27.19
2023-05-15T03:31:24.398Z,26.81
2023-05-15T03:33:59.285Z,27.20
2023-05-15T03:36:31.684Z,28.14
2023-05-15T03:39:04.617Z,27.36
2023-05-15T03:41:36.871Z,27.56
2023-05-15T03:44:10.713Z,27.27
2023-05-15T03:46:43.020Z,27.46
2023-05-15T03:49:18.037Z,26.77
2023-05-15T03:51:50.396Z,26.12
2023-05-15T03:54:22.717Z,24.84
2023-05-15T03:56:55.059Z,23.49
2023-05-15T03:59:27.306Z,24.09
2023-05-15T04:02:04.696Z,24.54
2023-05-15T04:04:40.404Z,24.57
2023-05-15T04:07:12.716Z,24.04
2023-05-15T04:09:45.064Z,25.06
2023-05-15T04:12:17.343Z,24.57
2023-05-15T04:14:49.588Z,23.48
2023-05-15T04:17:21.852Z,23.49
2023-05-15T04:19:56.712Z,23.23
2023-05-15T04:22:28.912Z,24.53
2023-05-15T04:25:01.175Z,23.16
2023-05-15T04:27:36.354Z,23.82
2023-05-15T04:30:09.922Z,22.95
2023-05-15T04:32:43.435Z,23.71
2023-05-15T04:35:18.356Z,23.66
2023-05-15T04:37:50.789Z,24.14
2023-05-15T04:40:23.176Z,24.38
2023-05-15T04:42:55.472Z,24.61
2023-05-15T04:45:30.453Z,24.85
2023-05-15T04:48:03.034Z,24.19
2023-05-15T04:50:37.924Z,23.34
2023-05-15T04:53:10.183Z,24.15
2023-05-15T04:55:42.603Z,25.75
2023-05-15T04:58:14.876Z,26.44
2023-05-15T05:00:47.152Z,28.09
2023-05-15T05:03:19.417Z,27.47
2023-05-15T05:05:54.312Z,27.52
2023-05-15T05:08:26.701Z,27.69
2023-05-15T05:11:01.979Z,27.16
2023-05-15T05:13:34.176Z,26.09
2023-05-15T05:16:06.501Z,25.77
2023-05-15T05:18:38.842Z,25.89
2023-05-15T05:21:13.709Z,26.04
2023-05-15T05:23:47.377Z,26.51
2023-05-15T05:26:22.494Z,26.88
2023-05-15T05:28:54.788Z,26.01
2023-05-15T05:31:27.204Z,25.74
2023-05-15T05:33:59.822Z,24.45
2023-05-15T05:36:34.950Z,24.45
2023-05-15T05:39:07.881Z,24.22
2023-05-15T05:41:40.266Z,24.13
2023-05-15T05:44:12.753Z,23.69
2023-05-15T05:46:45.570Z,23.84
2023-05-15T05:49:17.904Z,23.66
2023-05-15T05:51:52.894Z,24.46
2023-05-15T05:54:25.137Z,23.85
2023-05-15T05:56:57.417Z,24.69
2023-05-15T05:59:30.013Z,25.61
2023-05-15T06:02:02.453Z,25.45
2023-05-15T06:04:36.207Z,25.97
2023-05-15T06:07:11.258Z,25.85
2023-05-15T06:09:43.624Z,26.39
2023-05-15T06:12:15.913Z,26.62
2023-05-15T06:14:48.082Z,25.81
2023-05-15T06:17:20.297Z,26.26
2023-05-15T06:19:52.709Z,25.44
2023-05-15T06:22:28.487Z,25.33
2023-05-15T06:25:00.756Z,25.39
2023-05-15T06:27:33.181Z,25.63
2023-05-15T06:30:06.389Z,24.97
2023-05-15T06:32:38.693Z,24.50
2023-05-15T06:35:12.619Z,24.65
2023-05-15T06:37:50.375Z,25.08
2023-05-15T06:40:23.020Z,24.41
2023-05-15T06:42:55.673Z,23.66
2023-05-15T06:45:28.035Z,23.01
2023-05-15T06:48:02.043Z,24.40
2023-05-15T06:50:34.449Z,24.37
2023-05-15T06:53:09.262Z,23.62
2023-05-15T06:55:41.510Z,24.23
2023-05-15T06:58:13.791Z,24.11
2023-05-15T07:00:45.959Z,23.46
2023-05-15T07:03:18.298Z,23.41
2023-05-15T07:05:51.201Z,23.89
2023-05-15T07:08:26.153Z,23.83
2023-05-15T07:10:58.363Z,23.12
2023-05-15T07:13:30.743Z,22.84
2023-05-15T07:16:02.981Z,22.93
2023-05-15T07:18:36.356Z,23.06
2023-05-15T07:21:09.082Z,23.13
2023-05-15T07:23:44.001Z,22.98
2023-05-15T07:26:27.476Z,23.16
2023-05-15T07:29:04.970Z,23.08
2023-05-15T07:31:38.509Z,23.89
2023-05-15T07:34:10.899Z,23.23
2023-05-15T07:36:43.148Z,23.26
2023-05-15T07:39:18.115Z,22.84
2023-05-15T07:41:50.382Z,23.53
2023-05-15T07:44:22.564Z,23.54
2023-05-15T07:46:57.255Z,22.59
2023-05-15T07:49:29.691Z,23.40
2023-05-15T07:52:02.373Z,22.95
2023-05-15T07:54:37.221Z,22.44
2023-05-15T07:57:09.686Z,21.99
2023-05-15T07:59:42.019Z,24.26
2023-05-15T08:02:14.277Z,23.08
2023-05-15T08:04:46.515Z,23.19
2023-05-15T08:07:18.829Z,22.79
2023-05-15T08:09:53.711Z,22.43
2023-05-15T08:12:27.178Z,22.66
2023-05-15T08:15:00.749Z,23.04
2023-05-15T08:17:33.038Z,21.34
2023-05-15T08:20:05.264Z,20.43
2023-05-15T08:22:37.498Z,19.92
2023-05-15T08:25:13.346Z,19.39
2023-05-15T08:27:45.641Z,19.11
2023-05-15T08:30:18.672Z,19.50
2023-05-15T08:32:51.402Z,19.99
2023-05-15T08:35:23.842Z,19.98
2023-05-15T08:37:56.386Z,20.29
2023-05-15T08:40:38.956Z,20.04
2023-05-15T08:43:19.236Z,20.11
2023-05-15T08:45:52.959Z,20.25
2023-05-15T08:48:30.001Z,19.96
2023-05-15T08:51:03.773Z,20.17
2023-05-15T08:53:38.699Z,19.46
2023-05-15T08:56:14.259Z,20.39
2023-05-15T08:58:48.393Z,19.94
2023-05-15T09:01:21.159Z,20.71
2023-05-15T09:03:53.601Z,20.26
2023-05-15T09:06:28.379Z,20.19
2023-05-15T09:09:01.387Z,20.39
2023-05-15T09:11:36.959Z,20.46
2023-05-15T09:14:09.418Z,22.06
2023-05-15T09:16:41.920Z,21.10
2023-05-15T09:19:15.316Z,21.02
2023-05-15T09:21:47.633Z,21.14
2023-05-15T09:24:26.551Z,20.26
2023-05-15T09:27:12.204Z,19.10
2023-05-15T09:29:45.575Z,19.45
2023-05-15T09:32:19.447Z,19.07
2023-05-15T09:34:51.861Z,19.74
2023-05-15T09:37:34.825Z,19.37
2023-05-15T09:40:15.363Z,18.59
2023-05-15T09:42:56.113Z,18.66
2023-05-15T09:45:30.507Z,19.55
2023-05-15T09:48:08.500Z,21.11
2023-05-15T09:50:43.320Z,20.93
2023-05-15T09:53:21.432Z,20.61
2023-05-15T09:55:54.363Z,22.25
2023-05-15T09:58:29.319Z,24.11
2023-05-15T10:01:04.451Z,23.24
2023-05-15T10:03:36.741Z,22.56
2023-05-15T10:06:09.534Z,24.16
2023-05-15T10:08:45.355Z,25.79
2023-05-15T10:11:18.008Z,26.05
2023-05-15T10:13:53.252Z,26.99
2023-05-15T10:16:26.370Z,27.06
2023-05-15T10:19:04.936Z,28.26
2023-05-15T10:21:40.139Z,28.56
2023-05-15T10:24:13.068Z,29.81
2023-05-15T10:26:46.880Z,29.44
2023-05-15T10:29:25.551Z,30.41
2023-05-15T10:31:58.829Z,30.07
2023-05-15T10:34:32.696Z,30.78
2023-05-15T10:37:05.366Z,30.61
2023-05-15T10:39:43.076Z,31.76
2023-05-15T10:42:17.546Z,33.18
2023-05-15T10:44:54.272Z,34.19
2023-05-15T10:47:29.728Z,34.42
2023-05-15T10:50:02.492Z,34.44
2023-05-15T10:52:36.376Z,33.06
2023-05-15T10:55:11.679Z,33.84
2023-05-15T10:57:44.466Z,32.61
2023-05-15T11:00:34.301Z,32.21
2023-05-15T11:03:08.953Z,30.63
2023-05-15T11:06:12.409Z,30.04
2023-05-15T11:08:46.148Z,29.54
2023-05-15T11:12:02.649Z,29.00
2023-05-15T11:14:36.630Z,27.36
2023-05-15T11:17:15.673Z,26.53
2023-05-15T11:20:02.985Z,25.98
2023-05-15T11:22:39.012Z,24.71
2023-05-15T11:25:13.083Z,24.21
2023-05-15T11:27:47.435Z,24.00
2023-05-15T11:30:22.329Z,23.97
2023-05-15T11:33:01.092Z,24.16
2023-05-15T11:35:36.879Z,24.22
2023-05-15T11:38:16.704Z,23.65
2023-05-15T11:40:52.690Z,24.24
2023-05-15T11:43:26.533Z,23.81
2023-05-15T11:46:00.842Z,23.04
2023-05-15T11:48:40.045Z,23.37
2023-05-15T11:51:22.063Z,22.15
2023-05-15T11:53:56.719Z,22.84
2023-05-15T11:56:30.938Z,21.37
2023-05-15T11:59:05.146Z,20.88
2023-05-15T12:01:44.264Z,22.18
2023-05-15T12:04:20.818Z,21.26
2023-05-15T12:06:53.271Z,21.53
2023-05-15T12:09:27.692Z,21.20
2023-05-15T12:12:00.487Z,22.53
2023-05-15T12:14:34.786Z,21.76
2023-05-15T12:17:07.687Z,20.23
2023-05-15T12:19:43.937Z,20.22
2023-05-15T12:22:16.177Z,20.20
2023-05-15T12:24:48.703Z,19.53
2023-05-15T12:27:21.005Z,20.34
2023-05-15T12:29:54.676Z,19.93
2023-05-15T12:32:27.819Z,19.74
2023-05-15T12:35:05.827Z,19.05
2023-05-15T12:37:40.259Z,18.01
2023-05-15T12:40:14.990Z,18.09
2023-05-15T12:42:48.732Z,17.28
2023-05-15T12:45:23.606Z,17.27
2023-05-15T12:47:56.085Z,17.47
2023-05-15T12:50:34.006Z,16.16
2023-05-15T12:53:08.351Z,15.39
2023-05-15T12:55:43.760Z,14.98
2023-05-15T12:58:19.316Z,14.00
2023-05-15T13:00:51.772Z,14.10
2023-05-15T13:03:25.522Z,13.64
2023-05-15T13:06:00.685Z,13.04
2023-05-15T13:08:33.212Z,13.32
2023-05-15T13:11:05.586Z,13.31
2023-05-15T13:13:49.693Z,12.02
2023-05-15T13:16:32.051Z,12.22
2023-05-15T13:19:04.645Z,12.81
2023-05-15T13:21:39.930Z,11.99
2023-05-15T13:24:12.762Z,12.77
2023-05-15T13:26:45.273Z,12.61
2023-05-15T13:29:17.488Z,11.61
2023-05-15T13:31:49.747Z,11.19
2023-05-15T13:34:21.991Z,10.92
2023-05-15T13:36:56.771Z,12.45
2023-05-15T13:39:29.000Z,11.59
2023-05-15T13:42:01.724Z,13.67
2023-05-15T13:44:37.865Z,13.89
2023-05-15T13:47:10.656Z,14.00
2023-05-15T13:49:43.114Z,14.23
2023-05-15T13:52:18.099Z,13.99
2023-05-15T13:54:50.267Z,14.27
2023-05-15T13:57:22.829Z,15.44
2023-05-15T13:59:55.306Z,15.95
2023-05-15T14:02:28.812Z,16.20
2023-05-15T14:05:01.098Z,15.75
2023-05-15T14:07:35.915Z,15.44
2023-05-15T14:10:09.158Z,15.01
2023-05-15T14:12:42.657Z,15.44
2023-05-15T14:15:17.198Z,14.59
2023-05-15T14:17:50.830Z,14.16
2023-05-15T14:20:23.518Z,13.07
2023-05-15T14:22:58.508Z,13.26
2023-05-15T14:25:30.861Z,12.79
2023-05-15T14:28:04.520Z,11.62
2023-05-15T14:30:36.914Z,10.78
2023-05-15T14:33:09.232Z,10.86
2023-05-15T14:35:41.397Z,10.26
2023-05-15T14:38:16.264Z,10.35
2023-05-15T14:40:48.697Z,10.24
2023-05-15T14:43:21.072Z,10.96
2023-05-15T14:45:53.326Z,11.24
2023-05-15T14:48:25.744Z,11.23
2023-05-15T14:50:58.039Z,11.12
2023-05-15T14:53:32.954Z,11.18
2023-05-15T14:56:05.207Z,10.33
2023-05-15T14:58:37.559Z,10.00
2023-05-15T15:01:10.098Z,9.13
2023-05-15T15:03:42.818Z,9.34
2023-05-15T15:06:18.162Z,9.78
2023-05-15T15:08:53.130Z,9.72
2023-05-15T15:11:25.544Z,10.01
2023-05-15T15:14:11.869Z,10.27
2023-05-15T15:16:44.415Z,10.57
2023-05-15T15:19:19.754Z,11.04
2023-05-15T15:21:52.436Z,11.39
2023-05-15T15:24:29.401Z,11.25
2023-05-15T15:27:01.589Z,11.79
2023-05-15T15:29:34.065Z,11.36
2023-05-15T15:32:06.318Z,11.89
2023-05-15T15:34:38.761Z,11.01
2023-05-15T15:37:11.629Z,9.46
2023-05-15T15:39:46.688Z,8.90
2023-05-15T15:42:18.928Z,7.55
2023-05-15T15:44:51.145Z,7.39
2023-05-15T15:47:23.417Z,7.36
2023-05-15T15:49:56.094Z,7.41
2023-05-15T15:52:28.260Z,7.34
2023-05-15T15:55:03.020Z,6.99
2023-05-15T15:57:36.866Z,7.44
2023-05-15T16:00:11.018Z,7.65
2023-05-15T16:02:44.897Z,7.97
2023-05-15T16:05:17.167Z,8.41
2023-05-15T16:07:50.102Z,8.08
2023-05-15T16:10:27.412Z,8.33
2023-05-15T16:12:59.799Z,7.84
2023-05-15T16:15:32.017Z,8.22
2023-05-15T16:18:04.412Z,8.32
2023-05-15T16:20:36.682Z,8.01
2023-05-15T16:23:09.669Z,8.61
2023-05-15T16:25:44.480Z,8.82
2023-05-15T16:28:16.947Z,8.66
2023-05-15T16:30:51.182Z,8.45
2023-05-15T16:33:24.142Z,8.45
2023-05-15T16:35:59.322Z,8.09
2023-05-15T16:38:31.897Z,7.47
2023-05-15T16:41:06.645Z,6.77
2023-05-15T16:43:39.134Z,6.76
2023-05-15T16:46:12.315Z,7.35
2023-05-15T16:48:44.676Z,7.17
2023-05-15T16:51:16.945Z,7.08
2023-05-15T16:53:49.153Z,7.10
2023-05-15T16:56:24.427Z,7.03
2023-05-15T16:58:58.823Z,6.11
2023-05-15T17:01:31.171Z,5.94
2023-05-15T17:04:03.457Z,4.74
2023-05-15T17:06:37.554Z,3.79
2023-05-15T17:09:09.754Z,3.44
2023-05-15T17:11:45.246Z,3.20
2023-05-15T17:14:17.501Z,2.65
2023-05-15T17:16:49.645Z,2.56
2023-05-15T17:19:22.021Z,2.56
2023-05-15T17:21:54.281Z,2.41
2023-05-15T17:24:32.866Z,2.21
2023-05-15T17:27:18.510Z,2.36
2023-05-15T17:29:51.200Z,2.30
2023-05-15T17:32:26.286Z,2.41
2023-05-15T17:34:58.545Z,2.36
2023-05-15T17:37:30.832Z,2.27
2023-05-15T17:40:04.270Z,2.27
2023-05-15T17:42:39.241Z,2.26
2023-05-15T17:45:12.701Z,2.40
2023-05-15T17:47:44.933Z,2.47
2023-05-15T17:50:17.106Z,2.75
2023-05-15T17:52:49.287Z,2.70
2023-05-15T17:55:21.691Z,2.68
2023-05-15T17:57:56.883Z,2.85
2023-05-15T18:00:29.161Z,2.68
2023-05-15T18:03:01.750Z,2.70
2023-05-15T18:05:33.999Z,2.86
2023-05-15T18:08:08.094Z,2.90
2023-05-15T18:10:40.238Z,2.90
2023-05-15T18:13:15.038Z,3.04
2023-05-15T18:15:47.273Z,3.34
2023-05-15T18:18:19.461Z,3.09
2023-05-15T18:20:51.848Z,3.37
2023-05-15T18:23:27.062Z,3.31
2023-05-15T18:26:00.650Z,3.16
2023-05-15T18:28:35.485Z,3.10
2023-05-15T18:31:07.727Z,3.13
2023-05-15T18:33:40.829Z,2.88
2023-05-15T18:36:13.227Z,3.00
2023-05-15T18:38:45.470Z,2.72
2023-05-15T18:41:17.723Z,2.52
2023-05-15T18:43:55.769Z,2.54
2023-05-15T18:46:28.644Z,2.39
2023-05-15T18:49:01.124Z,2.37
2023-05-15T18:51:33.360Z,2.42
2023-05-15T18:54:05.552Z,2.41
2023-05-15T18:56:37.832Z,2.07
2023-05-15T18:59:13.842Z,2.08
2023-05-15T19:01:46.491Z,1.99
2023-05-15T19:04:19.012Z,1.89
2023-05-15T19:06:53.392Z,1.97
2023-05-15T19:09:25.805Z,1.99
2023-05-15T19:12:01.487Z,1.85
2023-05-15T19:14:38.535Z,1.79
2023-05-15T19:17:10.839Z,1.84
2023-05-15T19:19:45.452Z,1.48
2023-05-15T19:22:18.115Z,1.31
2023-05-15T19:24:50.783Z,1.30
2023-05-15T19:27:22.957Z,1.25
2023-05-15T19:29:57.983Z,1.16
2023-05-15T19:32:30.971Z,1.03
2023-05-15T19:35:03.397Z,1.05
2023-05-15T19:37:36.726Z,0.94
2023-05-15T19:40:10.159Z,0.96
2023-05-15T19:42:42.316Z,1.06
2023-05-15T19:45:17.336Z,0.91
2023-05-15T19:47:49.664Z,0.99
2023-05-15T19:50:26.248Z,1.20
2023-05-15T19:52:58.539Z,1.18
2023-05-15T19:55:30.728Z,1.29
2023-05-15T19:58:03.034Z,1.18
2023-05-15T20:00:37.888Z,1.32
2023-05-15T20:03:10.274Z,1.31
2023-05-15T20:05:44.076Z,1.56
2023-05-15T20:08:17.349Z,1.45
2023-05-15T20:10:55.123Z,1.71
2023-05-15T20:13:27.815Z,1.37
2023-05-15T20:16:09.326Z,1.49
2023-05-15T20:18:42.882Z,1.55
2023-05-15T20:21:15.277Z,1.77
2023-05-15T20:23:49.208Z,1.86
2023-05-15T20:26:22.529Z,1.67
2023-05-15T20:28:57.700Z,1.69
2023-05-15T20:31:32.640Z,1.50
2023-05-15T20:34:05.975Z,1.61
2023-05-15T20:36:39.061Z,1.69
2023-05-15T20:39:11.678Z,1.66
2023-05-15T20:41:43.825Z,1.66
2023-05-15T20:44:15.999Z,1.71
2023-05-15T20:46:50.782Z,1.69
2023-05-15T20:49:23.037Z,1.60
2023-05-15T20:51:55.204Z,1.72
2023-05-15T20:54:27.430Z,1.77
2023-05-15T20:56:59.747Z,1.75
2023-05-15T20:59:32.151Z,1.99
2023-05-15T21:02:09.305Z,1.77
2023-05-15T21:04:41.597Z,2.04
2023-05-15T21:07:14.150Z,1.84
2023-05-15T21:09:46.565Z,1.85
2023-05-15T21:12:18.784Z,2.00
2023-05-15T21:14:50.936Z,1.90
2023-05-15T21:17:27.159Z,2.04
2023-05-15T21:20:02.089Z,1.99
2023-05-15T21:22:34.474Z,2.16
2023-05-15T21:25:07.038Z,2.29
2023-05-15T21:27:39.300Z,2.39
2023-05-15T21:30:12.907Z,2.44
2023-05-15T21:32:47.799Z,2.34
2023-05-15T21:35:20.250Z,2.61
2023-05-15T21:37:52.681Z,2.70
2023-05-15T21:40:26.153Z,2.47
2023-05-15T21:42:58.479Z,2.53
2023-05-15T21:45:30.692Z,2.56
2023-05-15T21:48:05.709Z,2.51
2023-05-15T21:50:37.947Z,2.66
2023-05-15T21:53:10.252Z,2.93
2023-05-15T21:55:42.653Z,2.84
2023-05-15T21:58:14.920Z,2.69
2023-05-15T22:00:47.110Z,2.60
2023-05-15T22:03:22.806Z,2.79
2023-05-15T22:05:55.217Z,2.54
2023-05-15T22:08:27.529Z,2.77
2023-05-15T22:10:59.876Z,2.66
2023-05-15T22:13:32.102Z,2.77
2023-05-15T22:16:04.353Z,2.83
2023-05-15T22:18:39.919Z,2.66
2023-05-15T22:21:13.138Z,2.90
2023-05-15T22:23:45.865Z,2.61
2023-05-15T22:26:19.882Z,2.69
2023-05-15T22:28:57.720Z,2.87
2023-05-15T22:31:29.970Z,2.69
2023-05-15T22:34:04.773Z,2.71
2023-05-15T22:36:37.129Z,2.59
2023-05-15T22:39:09.617Z,2.54
2023-05-15T22:41:41.835Z,2.59
2023-05-15T22:44:14.044Z,2.69
2023-05-15T22:46:46.596Z,2.80
2023-05-15T22:49:25.664Z,2.66
2023-05-15T22:51:59.531Z,2.80
2023-05-15T22:54:31.770Z,2.71
2023-05-15T22:57:03.995Z,2.66
2023-05-15T22:59:36.592Z,2.66
2023-05-15T23:02:08.978Z,2.68
2023-05-15T23:04:43.722Z,2.44
2023-05-15T23:07:17.405Z,2.54
2023-05-15T23:09:49.610Z,2.49
2023-05-15T23:12:22.013Z,2.35
2023-05-15T23:14:54.245Z,2.27
2023-05-15T23:17:26.720Z,2.23
2023-05-15T23:20:01.906Z,2.35
2023-05-15T23:22:34.089Z,2.31
2023-05-15T23:25:06.813Z,2.12
2023-05-15T23:27:39.013Z,2.28
2023-05-15T23:30:12.782Z,2.06
2023-05-15T23:32:44.989Z,1.99
2023-05-15T23:35:19.769Z,2.18
2023-05-15T23:37:52.061Z,2.01
2023-05-15T23:40:27.011Z,1.91
2023-05-15T23:42:59.371Z,1.88
2023-05-15T23:45:31.498Z,2.01
2023-05-15T23:48:03.860Z,1.99
2023-05-15T23:50:38.671Z,2.12
2023-05-15T23:53:11.107Z,2.01
2023-05-15T23:55:43.323Z,1.86
2023-05-15T23:58:15.570Z,2.22
